Skaelskor, Denmark
Current Conditions -  °F | °C
As of 12:50 PM on Wednesday 28 Jan 2015 (Local Time) from EKRK Reporting Station
Overcast Overcast  
Wind Chill: -1°   Ceiling: 800
Heat Index:   Visibility: 6mi
Dew Point:   Wind: 20mph
Humidity: 93%   Direction: 210°SSW
Pressure: 29.47"   Gusts: NA
Location:  55.25°N, 11.29°E
Report Text: EKRK 281150Z AUTO 21017KT 9999NDV BKN008/// OVC010///04/03 Q0998
Loading
Personal Weather Stations






























Interactive Weather Map New forecast layout! Learn more

10-Day Weather Forecast

Advertisements
Track Severe Weather on mobile